This is the latest recevied weather packets stored in our database for station/object DK4DO-10. If no packets are shown the sender has not sent any weather packets the latest 10 day(s).
| Time | Temp. | Humidity | Pressure | Rain* | Wind** | Luminosity | Snow |
|---|---|---|---|---|---|---|---|
| 1777794777 | 18.33° C | 38% | 1006.3 hPa | - | - | - | - |
| 1777794177 | 18.33° C | 42% | 1006.3 hPa | - | - | - | - |
| 1777793576 | 17.78° C | 41% | 1006.2 hPa | - | - | - | - |
| 1777792976 | 17.22° C | 47% | 1006.3 hPa | - | - | - | - |
| 1777792376 | 16.67° C | 47% | 1006.2 hPa | - | - | - | - |
| 1777791775 | 16.67° C | 49% | 1006.3 hPa | - | - | - | - |
| 1777791175 | 16.11° C | 53% | 1006.3 hPa | - | - | - | - |
| 1777790575 | 16.67° C | 50% | 1006.3 hPa | - | - | - | - |
| 1777789975 | 16.11° C | 52% | 1006.3 hPa | - | - | - | - |
| 1777789374 | 15.56° C | 53% | 1006.5 hPa | - | - | - | - |
| 1777788781 | 15.56° C | 53% | 1006.5 hPa | - | - | - | - |
| 1777788182 | 15.56° C | 53% | 1006.6 hPa | - | - | - | - |
| 1777787581 | 14.44° C | 58% | 1006.6 hPa | - | - | - | - |
| 1777786981 | 14.44° C | 57% | 1006.6 hPa | - | - | - | - |
| 1777786380 | 15° C | 55% | 1006.4 hPa | - | - | - | - |
| 1777785780 | 16.67° C | 51% | 1006.3 hPa | - | - | - | - |
| 1777785180 | 16.67° C | 50% | 1006.2 hPa | - | - | - | - |
| 1777784580 | 16.11° C | 50% | 1006.2 hPa | - | - | - | - |
| 1777783980 | 15.56° C | 52% | 1006.4 hPa | - | - | - | - |
| 1777783380 | 16.11° C | 50% | 1006.3 hPa | - | - | - | - |
| 1777782779 | 16.11° C | 50% | 1006.5 hPa | - | - | - | - |
| 1777782179 | 16.11° C | 50% | 1006.5 hPa | - | - | - | - |
| 1777781579 | 16.11° C | 50% | 1006.7 hPa | - | - | - | - |
| 1777780979 | 16.11° C | 50% | 1006.6 hPa | - | - | - | - |
| 1777780378 | 15.56° C | 51% | 1006.6 hPa | - | - | - | - |
* Rain since midnight (hover to see other rain measurements)
** Current wind speed in m/s (hover to see current wind gust speed)